Terminal Aerodrome Forecast
Issued by NWS

Home | Current Version | Previous Version | Text Only | Print | Product List | Glossary Off
Versions: 1 2 3 4 5 6 7 8 9 10 11 12 13 14 15 16 17 18 19 20 21 22 23

000
FTUS43 KICT 230522
TAFHUT
TAF
KHUT 230522Z 2306/2406 16015G22KT P6SM SCT030
      TEMPO 2306/2308 BKN030
     FM230800 17013KT P6SM VCTS OVC020CB
     FM231600 17016G23KT P6SM BKN035=

USA.gov is the U.S. government's official web portal to all federal, state and local government web resources and services.